createdAt,value
2022-11-13T00:01:13.468Z,5.70
2022-11-13T00:04:01.196Z,5.70
2022-11-13T00:06:47.540Z,5.80
2022-11-13T00:09:33.855Z,5.80
2022-11-13T00:12:20.246Z,5.80
2022-11-13T00:15:07.643Z,5.70
2022-11-13T00:17:54.871Z,5.70
2022-11-13T00:20:42.738Z,5.60
2022-11-13T00:23:29.264Z,5.60
2022-11-13T00:26:17.441Z,5.70
2022-11-13T00:29:04.835Z,5.70
2022-11-13T00:31:51.061Z,5.70
2022-11-13T00:34:53.061Z,5.60
2022-11-13T00:37:41.019Z,5.40
2022-11-13T00:40:27.336Z,5.60
2022-11-13T00:43:13.570Z,5.50
2022-11-13T00:46:00.140Z,5.50
2022-11-13T00:48:46.378Z,5.50
2022-11-13T00:51:33.368Z,5.50
2022-11-13T00:54:21.471Z,5.40
2022-11-13T00:57:07.919Z,5.30
2022-11-13T00:59:54.575Z,5.30
2022-11-13T01:02:41.154Z,5.10
2022-11-13T01:05:27.857Z,5.20
2022-11-13T01:08:15.783Z,5.20
2022-11-13T01:11:10.019Z,5.30
2022-11-13T01:13:56.547Z,5.40
2022-11-13T01:16:42.857Z,5.30
2022-11-13T01:19:29.331Z,5.30
2022-11-13T01:22:15.980Z,5.20
2022-11-13T01:25:02.467Z,5.20
2022-11-13T01:27:49.783Z,5.20
2022-11-13T01:30:36.263Z,5.20
2022-11-13T01:33:22.781Z,5.20
2022-11-13T01:36:12.066Z,5.20
2022-11-13T01:38:58.974Z,5.20
2022-11-13T01:41:45.379Z,5.30
2022-11-13T01:47:25.343Z,5.20
2022-11-13T01:50:15.688Z,5.20
2022-11-13T01:53:02.287Z,5.10
2022-11-13T01:55:49.183Z,5.00
2022-11-13T01:58:36.279Z,5.00
2022-11-13T02:01:22.776Z,5.00
2022-11-13T02:04:10.528Z,4.90
2022-11-13T02:06:59.432Z,4.90
2022-11-13T02:09:49.234Z,4.70
2022-11-13T02:12:40.229Z,4.60
2022-11-13T02:15:29.727Z,4.60
2022-11-13T02:18:17.967Z,4.30
2022-11-13T02:21:14.344Z,4.10
2022-11-13T02:24:14.599Z,3.90
2022-11-13T02:27:05.521Z,3.70
2022-11-13T02:29:51.964Z,3.70
2022-11-13T02:32:43.959Z,3.70
2022-11-13T02:35:32.957Z,3.70
2022-11-13T02:38:19.523Z,3.70
2022-11-13T02:41:07.176Z,3.60
2022-11-13T02:43:53.628Z,3.70
2022-11-13T02:46:39.999Z,3.70
2022-11-13T02:49:26.454Z,3.70
2022-11-13T02:52:12.853Z,3.70
2022-11-13T02:54:59.048Z,3.80
2022-11-13T02:57:46.542Z,3.90
2022-11-13T03:00:33.184Z,3.90
2022-11-13T03:03:41.049Z,4.00
2022-11-13T03:06:25.514Z,4.00
2022-11-13T03:09:11.717Z,4.10
2022-11-13T03:11:58.285Z,4.00
2022-11-13T03:14:45.969Z,3.90
2022-11-13T03:17:32.641Z,3.90
2022-11-13T03:20:18.990Z,3.80
2022-11-13T03:23:05.116Z,4.00
2022-11-13T03:25:51.366Z,3.90
2022-11-13T03:28:38.674Z,3.80
2022-11-13T03:31:26.444Z,3.80
2022-11-13T03:34:12.998Z,3.80
2022-11-13T03:36:59.403Z,3.80
2022-11-13T03:39:45.731Z,3.80
2022-11-13T03:42:32.136Z,3.80
2022-11-13T03:45:18.878Z,3.70
2022-11-13T03:48:06.978Z,3.50
2022-11-13T03:50:55.679Z,3.50
2022-11-13T03:53:42.181Z,3.60
2022-11-13T03:56:29.323Z,3.60
2022-11-13T03:59:15.526Z,3.60
2022-11-13T04:02:02.056Z,3.70
2022-11-13T04:04:49.638Z,3.60
2022-11-13T04:07:36.242Z,3.70
2022-11-13T04:10:22.582Z,3.70
2022-11-13T04:13:09.415Z,3.80
2022-11-13T04:15:55.963Z,3.70
2022-11-13T04:18:53.829Z,3.60
2022-11-13T04:21:41.546Z,3.40
2022-11-13T04:24:27.957Z,3.10
2022-11-13T04:27:14.333Z,2.90
2022-11-13T04:30:00.781Z,2.80
2022-11-13T04:32:47.215Z,3.00
2022-11-13T04:35:33.955Z,3.10
2022-11-13T04:38:21.804Z,3.10
2022-11-13T04:41:26.280Z,3.10
2022-11-13T04:44:12.921Z,3.10
2022-11-13T04:46:59.458Z,3.00
2022-11-13T04:49:45.631Z,3.10
2022-11-13T04:52:32.074Z,3.10
2022-11-13T04:55:20.149Z,3.10
2022-11-13T04:58:06.343Z,3.10
2022-11-13T05:00:52.580Z,3.20
2022-11-13T05:03:39.400Z,3.20
2022-11-13T05:06:25.547Z,3.20
2022-11-13T05:09:12.700Z,3.20
2022-11-13T05:12:00.347Z,3.20
2022-11-13T05:14:46.904Z,3.30
2022-11-13T05:17:33.081Z,3.30
2022-11-13T05:20:19.696Z,3.40
2022-11-13T05:23:05.823Z,3.30
2022-11-13T05:25:52.476Z,3.20
2022-11-13T05:28:40.586Z,3.20
2022-11-13T05:31:27.521Z,3.20
2022-11-13T05:34:13.775Z,3.10
2022-11-13T05:37:00.228Z,3.10
2022-11-13T05:39:46.331Z,3.10
2022-11-13T05:42:32.579Z,3.10
2022-11-13T05:45:20.345Z,3.20
2022-11-13T05:48:07.204Z,3.20
2022-11-13T05:50:53.501Z,3.10
2022-11-13T05:53:40.484Z,3.10
2022-11-13T05:56:27.863Z,2.80
2022-11-13T05:59:14.292Z,2.70
2022-11-13T06:02:02.507Z,2.70
2022-11-13T06:04:50.661Z,2.70
2022-11-13T06:07:38.200Z,2.80
2022-11-13T06:10:24.583Z,2.90
2022-11-13T06:13:10.947Z,2.90
2022-11-13T06:16:02.028Z,2.90
2022-11-13T06:18:50.615Z,2.90
2022-11-13T06:21:39.825Z,2.90
2022-11-13T06:24:26.125Z,3.00
2022-11-13T06:27:12.271Z,3.00
2022-11-13T06:29:58.475Z,2.80
2022-11-13T06:32:45.121Z,2.70
2022-11-13T06:35:33.262Z,2.80
2022-11-13T06:38:19.756Z,2.80
2022-11-13T06:41:07.392Z,2.80
2022-11-13T06:43:57.433Z,2.90
2022-11-13T06:46:46.544Z,2.80
2022-11-13T06:49:32.928Z,2.80
2022-11-13T06:52:20.783Z,2.80
2022-11-13T06:55:07.811Z,2.90
2022-11-13T06:57:55.312Z,2.80
2022-11-13T07:00:42.318Z,2.90
2022-11-13T07:03:29.259Z,3.00
2022-11-13T07:06:17.827Z,3.00
2022-11-13T07:09:05.511Z,3.10
2022-11-13T07:11:51.887Z,3.10
2022-11-13T07:14:38.205Z,3.10
2022-11-13T07:17:24.534Z,3.20
2022-11-13T07:20:11.796Z,3.10
2022-11-13T07:22:58.984Z,3.20
2022-11-13T07:25:46.516Z,3.30
2022-11-13T07:28:33.262Z,3.40
2022-11-13T07:31:20.750Z,3.50
2022-11-13T07:34:07.464Z,3.50
2022-11-13T07:36:54.087Z,3.60
2022-11-13T07:39:40.603Z,3.70
2022-11-13T07:42:28.452Z,3.60
2022-11-13T07:45:14.751Z,3.50
2022-11-13T07:48:01.673Z,3.50
2022-11-13T07:50:48.849Z,3.60
2022-11-13T07:53:35.880Z,3.50
2022-11-13T07:56:23.421Z,3.60
2022-11-13T07:59:11.236Z,3.60
2022-11-13T08:01:57.590Z,3.60
2022-11-13T08:04:44.067Z,3.70
2022-11-13T08:07:30.759Z,3.60
2022-11-13T08:10:17.838Z,3.50
2022-11-13T08:13:05.889Z,3.40
2022-11-13T08:15:53.567Z,3.40
2022-11-13T08:18:40.009Z,3.30
2022-11-13T08:21:26.405Z,3.20
2022-11-13T08:24:12.912Z,3.40
2022-11-13T08:26:59.175Z,3.40
2022-11-13T08:29:45.857Z,3.40
2022-11-13T08:32:33.896Z,3.50
2022-11-13T08:35:23.974Z,3.60
2022-11-13T08:38:13.188Z,3.70
2022-11-13T08:41:03.268Z,3.80
2022-11-13T08:43:53.662Z,3.90
2022-11-13T08:46:40.085Z,4.00
2022-11-13T08:49:27.857Z,4.00
2022-11-13T08:52:15.446Z,4.10
2022-11-13T08:55:01.704Z,4.30
2022-11-13T08:57:48.287Z,4.40
2022-11-13T09:00:34.491Z,4.50
2022-11-13T09:03:20.848Z,4.40
2022-11-13T09:06:10.113Z,4.30
2022-11-13T09:08:56.491Z,4.30
2022-11-13T09:11:42.697Z,4.50
2022-11-13T09:14:29.338Z,4.60
2022-11-13T09:17:15.503Z,4.60
2022-11-13T09:20:04.263Z,4.70
2022-11-13T09:22:59.582Z,4.80
2022-11-13T09:25:45.732Z,5.00
2022-11-13T09:28:32.307Z,5.00
2022-11-13T09:31:18.492Z,5.20
2022-11-13T09:34:04.723Z,5.30
2022-11-13T09:36:51.292Z,5.20
2022-11-13T09:39:39.044Z,5.10
2022-11-13T09:42:30.607Z,5.20
2022-11-13T09:45:17.496Z,5.00
2022-11-13T09:48:18.922Z,5.10
2022-11-13T09:51:11.750Z,5.20
2022-11-13T09:53:59.377Z,5.20
2022-11-13T09:56:52.348Z,5.10
2022-11-13T09:59:45.067Z,5.20
2022-11-13T10:02:44.158Z,5.10
2022-11-13T10:05:40.538Z,5.20
2022-11-13T10:08:30.794Z,5.30
2022-11-13T10:11:24.443Z,5.40
2022-11-13T10:14:20.283Z,5.50
2022-11-13T10:17:14.606Z,5.60
2022-11-13T10:20:04.083Z,5.70
2022-11-13T10:22:52.455Z,5.70
2022-11-13T10:25:41.332Z,5.70
2022-11-13T10:28:49.470Z,5.90
2022-11-13T10:31:45.186Z,5.80
2022-11-13T10:34:34.186Z,5.90
2022-11-13T10:37:35.797Z,5.80
2022-11-13T10:40:26.285Z,5.80
2022-11-13T10:43:16.278Z,6.00
2022-11-13T10:46:04.581Z,6.00
2022-11-13T10:48:52.565Z,6.10
2022-11-13T10:51:39.707Z,6.20
2022-11-13T10:54:28.237Z,6.30
2022-11-13T10:57:26.379Z,6.30
2022-11-13T11:00:28.151Z,6.20
2022-11-13T11:03:16.298Z,6.30
2022-11-13T11:06:05.728Z,6.30
2022-11-13T11:08:52.335Z,6.30
2022-11-13T11:11:56.070Z,6.30
2022-11-13T11:15:04.619Z,6.30
2022-11-13T11:17:53.856Z,6.30
2022-11-13T11:20:45.968Z,6.20
2022-11-13T11:23:41.639Z,6.20
2022-11-13T11:26:33.320Z,6.30
2022-11-13T11:29:27.751Z,6.30
2022-11-13T11:32:20.980Z,6.30
2022-11-13T11:35:14.466Z,6.30
2022-11-13T11:38:06.779Z,6.30
2022-11-13T11:41:02.936Z,6.30
2022-11-13T11:43:58.261Z,6.40
2022-11-13T11:46:46.863Z,6.30
2022-11-13T11:49:33.630Z,6.30
2022-11-13T11:52:33.934Z,6.30
2022-11-13T11:55:36.665Z,6.30
2022-11-13T11:58:40.073Z,6.20
2022-11-13T12:01:40.992Z,6.10
2022-11-13T12:04:43.535Z,6.00
2022-11-13T12:07:40.983Z,5.90
2022-11-13T12:10:37.364Z,5.80
2022-11-13T12:13:31.377Z,5.70
2022-11-13T12:16:30.904Z,5.70
2022-11-13T12:19:25.732Z,5.90
2022-11-13T12:22:24.899Z,6.00
2022-11-13T12:25:22.110Z,6.00
2022-11-13T12:28:17.037Z,6.10
2022-11-13T12:31:12.432Z,6.10
2022-11-13T12:34:08.167Z,6.10
2022-11-13T12:36:55.992Z,6.00
2022-11-13T12:39:49.914Z,6.00
2022-11-13T12:42:44.154Z,6.00
2022-11-13T12:45:45.385Z,6.10
2022-11-13T12:48:36.704Z,6.10
2022-11-13T12:51:22.941Z,6.10
2022-11-13T12:54:11.477Z,6.20
2022-11-13T12:57:17.174Z,6.10
2022-11-13T13:00:23.534Z,6.20
2022-11-13T13:03:22.676Z,6.20
2022-11-13T13:06:21.538Z,6.30
2022-11-13T13:09:23.324Z,6.30
2022-11-13T13:12:18.535Z,6.40
2022-11-13T13:15:28.688Z,6.40
2022-11-13T13:18:30.871Z,6.50
2022-11-13T13:21:20.335Z,6.50
2022-11-13T13:24:31.260Z,6.70
2022-11-13T13:27:26.347Z,6.60
2022-11-13T13:30:22.225Z,6.60
2022-11-13T13:33:20.586Z,6.60
2022-11-13T13:36:21.442Z,6.70
2022-11-13T13:39:20.110Z,6.60
2022-11-13T13:42:19.660Z,6.50
2022-11-13T13:45:25.763Z,6.50
2022-11-13T13:48:14.698Z,6.60
2022-11-13T13:51:02.934Z,6.70
2022-11-13T13:53:51.108Z,6.70
2022-11-13T13:56:42.122Z,6.60
2022-11-13T13:59:33.941Z,6.60
2022-11-13T14:02:23.080Z,6.50
2022-11-13T14:05:25.672Z,6.50
2022-11-13T14:08:18.123Z,6.60
2022-11-13T14:11:17.998Z,6.60
2022-11-13T14:14:16.834Z,6.60
2022-11-13T14:17:03.867Z,6.70
2022-11-13T14:19:51.455Z,6.70
2022-11-13T14:22:38.427Z,6.60
2022-11-13T14:25:29.187Z,6.60
2022-11-13T14:28:20.046Z,6.60
2022-11-13T14:31:08.857Z,6.60
2022-11-13T14:33:55.679Z,6.50
2022-11-13T14:36:41.886Z,6.40
2022-11-13T14:39:32.421Z,6.30
2022-11-13T14:42:21.140Z,6.20
2022-11-13T14:45:17.929Z,6.10
2022-11-13T14:48:22.145Z,6.00
2022-11-13T14:51:24.028Z,5.90
2022-11-13T14:54:46.802Z,5.90
2022-11-13T14:57:35.637Z,5.80
2022-11-13T15:00:29.851Z,5.80
2022-11-13T15:03:16.345Z,5.80
2022-11-13T15:06:03.128Z,5.80
2022-11-13T15:08:51.349Z,5.60
2022-11-13T15:11:40.165Z,5.70
2022-11-13T15:14:26.340Z,5.60
2022-11-13T15:17:19.292Z,5.60
2022-11-13T15:20:09.659Z,5.50
2022-11-13T15:22:57.961Z,5.50
2022-11-13T15:25:45.602Z,5.50
2022-11-13T15:28:31.936Z,5.50
2022-11-13T15:31:20.992Z,5.40
2022-11-13T15:34:11.703Z,5.50
2022-11-13T15:36:58.188Z,5.40
2022-11-13T15:39:44.353Z,5.40
2022-11-13T15:42:34.457Z,5.40
2022-11-13T15:45:20.967Z,5.40
2022-11-13T15:48:10.337Z,5.40
2022-11-13T15:50:58.018Z,5.30
2022-11-13T15:53:45.321Z,5.20
2022-11-13T15:56:32.247Z,5.30
2022-11-13T15:59:18.881Z,5.40
2022-11-13T16:02:06.047Z,5.40
2022-11-13T16:04:57.361Z,5.40
2022-11-13T16:07:45.247Z,5.40
2022-11-13T16:10:31.587Z,5.30
2022-11-13T16:13:17.948Z,5.20
2022-11-13T16:16:04.604Z,5.10
2022-11-13T16:18:55.863Z,5.20
2022-11-13T16:21:45.288Z,5.20
2022-11-13T16:24:33.124Z,5.10
2022-11-13T16:27:26.992Z,5.30
2022-11-13T16:30:17.914Z,5.20
2022-11-13T16:33:07.875Z,5.20
2022-11-13T16:35:54.915Z,5.10
2022-11-13T16:38:41.519Z,5.10
2022-11-13T16:41:29.009Z,5.10
2022-11-13T16:44:15.194Z,5.10
2022-11-13T16:47:02.692Z,5.00
2022-11-13T16:49:50.086Z,5.00
2022-11-13T16:52:36.579Z,5.00
2022-11-13T16:55:23.614Z,5.00
2022-11-13T16:58:15.015Z,4.90
2022-11-13T17:01:01.473Z,5.00
2022-11-13T17:03:47.832Z,5.10
2022-11-13T17:06:35.883Z,5.20
2022-11-13T17:09:22.242Z,5.20
2022-11-13T17:12:08.853Z,4.90
2022-11-13T17:14:56.450Z,4.80
2022-11-13T17:17:43.065Z,4.80
2022-11-13T17:20:29.317Z,4.80
2022-11-13T17:23:15.997Z,4.70
2022-11-13T17:26:02.243Z,4.70
2022-11-13T17:28:48.768Z,4.60
2022-11-13T17:31:36.349Z,4.60
2022-11-13T17:34:23.115Z,4.60
2022-11-13T17:37:09.239Z,4.60
2022-11-13T17:39:55.851Z,4.60
2022-11-13T17:42:42.375Z,4.60
2022-11-13T17:45:28.528Z,4.60
2022-11-13T17:48:16.143Z,4.50
2022-11-13T17:51:03.826Z,4.50
2022-11-13T17:53:50.097Z,4.40
2022-11-13T17:56:37.659Z,4.30
2022-11-13T17:59:23.822Z,4.30
2022-11-13T18:02:12.340Z,4.30
2022-11-13T18:05:01.270Z,4.20
2022-11-13T18:07:47.889Z,4.30
2022-11-13T18:10:34.981Z,4.30
2022-11-13T18:13:21.439Z,4.20
2022-11-13T18:16:09.490Z,4.20
2022-11-13T18:18:58.224Z,4.40
2022-11-13T18:21:45.862Z,4.30
2022-11-13T18:24:32.084Z,4.40
2022-11-13T18:27:18.300Z,4.70
2022-11-13T18:30:05.259Z,4.90
2022-11-13T18:32:51.411Z,5.00
2022-11-13T18:35:37.700Z,5.10
2022-11-13T18:38:25.472Z,5.20
2022-11-13T18:41:13.930Z,5.30
2022-11-13T18:44:00.047Z,5.30
2022-11-13T18:46:46.654Z,5.50
2022-11-13T18:49:32.932Z,5.50
2022-11-13T18:52:19.475Z,5.50
2022-11-13T18:55:09.524Z,5.50
2022-11-13T18:57:55.944Z,5.40
2022-11-13T19:00:42.321Z,5.50
2022-11-13T19:03:29.047Z,5.50
2022-11-13T19:06:16.810Z,5.50
2022-11-13T19:09:05.647Z,5.40
2022-11-13T19:11:55.395Z,5.50
2022-11-13T19:14:41.948Z,5.60
2022-11-13T19:17:28.176Z,5.50
2022-11-13T19:20:14.674Z,5.50
2022-11-13T19:23:05.102Z,5.40
2022-11-13T19:25:54.593Z,5.50
2022-11-13T19:28:42.336Z,5.40
2022-11-13T19:31:29.127Z,5.50
2022-11-13T19:34:15.721Z,5.30
2022-11-13T19:37:02.471Z,5.40
2022-11-13T19:39:48.904Z,5.30
2022-11-13T19:42:40.767Z,5.30
2022-11-13T19:45:30.126Z,5.30
2022-11-13T19:48:18.956Z,5.20
2022-11-13T19:51:06.232Z,5.20
2022-11-13T19:53:54.426Z,5.10
2022-11-13T19:56:40.832Z,5.10
2022-11-13T19:59:27.475Z,5.10
2022-11-13T20:02:15.258Z,5.00
2022-11-13T20:05:01.879Z,5.10
2022-11-13T20:07:48.306Z,5.20
2022-11-13T20:10:34.744Z,5.10
2022-11-13T20:13:21.048Z,5.10
2022-11-13T20:16:09.350Z,4.90
2022-11-13T20:18:59.198Z,5.00
2022-11-13T20:21:45.347Z,4.90
2022-11-13T20:24:31.751Z,4.90
2022-11-13T20:27:18.071Z,4.90
2022-11-13T20:30:05.381Z,4.90
2022-11-13T20:32:51.978Z,4.90
2022-11-13T20:35:39.660Z,4.90
2022-11-13T20:38:26.101Z,4.90
2022-11-13T20:41:12.685Z,4.90
2022-11-13T20:44:03.293Z,4.80
2022-11-13T20:46:49.882Z,4.80
2022-11-13T20:49:36.104Z,4.80
2022-11-13T20:52:23.836Z,4.90
2022-11-13T20:55:10.932Z,4.80
2022-11-13T20:57:57.878Z,4.70
2022-11-13T21:00:44.503Z,4.90
2022-11-13T21:03:30.847Z,4.70
2022-11-13T21:06:18.979Z,4.60
2022-11-13T21:09:06.991Z,4.60
2022-11-13T21:11:53.586Z,4.60
2022-11-13T21:14:39.695Z,4.70
2022-11-13T21:17:26.187Z,4.60
2022-11-13T21:20:13.439Z,4.70
2022-11-13T21:23:00.040Z,4.60
2022-11-13T21:25:47.732Z,4.60
2022-11-13T21:28:34.388Z,4.70
2022-11-13T21:31:21.736Z,4.60
2022-11-13T21:34:10.508Z,4.50
2022-11-13T21:36:56.978Z,4.40
2022-11-13T21:39:43.599Z,4.50
2022-11-13T21:42:31.180Z,4.50
2022-11-13T21:45:17.999Z,4.40
2022-11-13T21:48:04.644Z,4.40
2022-11-13T21:50:50.768Z,4.40
2022-11-13T21:53:37.323Z,4.40
2022-11-13T21:56:24.166Z,4.50
2022-11-13T21:59:12.049Z,4.50
2022-11-13T22:01:58.544Z,4.40
2022-11-13T22:04:44.969Z,4.40
2022-11-13T22:07:31.275Z,4.50
2022-11-13T22:10:17.428Z,4.40
2022-11-13T22:13:04.135Z,4.40
2022-11-13T22:15:51.659Z,4.30
2022-11-13T22:18:38.155Z,4.40
2022-11-13T22:21:25.842Z,4.20
2022-11-13T22:24:13.157Z,4.20
2022-11-13T22:26:59.547Z,4.20
2022-11-13T22:29:46.120Z,4.30
2022-11-13T22:32:33.847Z,4.20
2022-11-13T22:35:20.233Z,4.30
2022-11-13T22:38:06.909Z,4.20
2022-11-13T22:40:53.637Z,4.20
2022-11-13T22:43:41.498Z,4.20
2022-11-13T22:46:29.695Z,4.30
2022-11-13T22:49:17.417Z,4.40
2022-11-13T22:52:03.905Z,4.40
2022-11-13T22:54:50.338Z,4.30
2022-11-13T22:57:36.988Z,4.40
2022-11-13T23:00:23.512Z,4.30
2022-11-13T23:03:09.769Z,4.30
2022-11-13T23:05:57.311Z,4.30
2022-11-13T23:08:44.059Z,4.30
2022-11-13T23:11:32.784Z,4.30
2022-11-13T23:14:19.388Z,4.20
2022-11-13T23:17:05.800Z,4.20
2022-11-13T23:19:51.895Z,4.20
2022-11-13T23:22:39.474Z,4.20
2022-11-13T23:25:26.070Z,4.30
2022-11-13T23:28:12.332Z,4.20
2022-11-13T23:30:59.408Z,4.20
2022-11-13T23:33:46.733Z,4.20
2022-11-13T23:36:32.959Z,4.10
2022-11-13T23:39:20.550Z,4.20
2022-11-13T23:42:07.143Z,4.30
2022-11-13T23:44:53.615Z,4.40
2022-11-13T23:47:40.140Z,4.40
2022-11-13T23:50:26.555Z,4.40
2022-11-13T23:53:12.944Z,4.40
2022-11-13T23:56:00.513Z,4.40
2022-11-13T23:58:47.194Z,4.40
